createdAt,value
2022-10-25T00:00:21.114Z,15.40
2022-10-25T00:02:48.068Z,15.77
2022-10-25T00:05:15.941Z,15.80
2022-10-25T00:07:42.860Z,15.30
2022-10-25T00:10:09.893Z,20.73
2022-10-25T00:12:41.389Z,16.77
2022-10-25T00:15:08.430Z,17.23
2022-10-25T00:17:35.329Z,13.47
2022-10-25T00:20:02.074Z,12.67
2022-10-25T00:22:29.238Z,13.90
2022-10-25T00:24:56.032Z,13.67
2022-10-25T00:27:22.922Z,17.70
2022-10-25T00:29:49.728Z,14.40
2022-10-25T00:32:16.586Z,13.77
2022-10-25T00:34:43.372Z,10.47
2022-10-25T00:37:10.142Z,12.40
2022-10-25T00:39:36.917Z,12.07
2022-10-25T00:42:03.933Z,15.00
2022-10-25T00:44:36.700Z,15.00
2022-10-25T00:47:04.805Z,11.03
2022-10-25T00:49:32.991Z,11.73
2022-10-25T00:52:01.702Z,12.00
2022-10-25T00:54:36.889Z,12.33
2022-10-25T00:57:12.004Z,11.17
2022-10-25T00:59:39.071Z,11.80
2022-10-25T01:02:06.166Z,12.57
2022-10-25T01:04:33.571Z,12.57
2022-10-25T01:07:01.162Z,11.40
2022-10-25T01:09:30.347Z,11.47
2022-10-25T01:11:57.459Z,11.57
2022-10-25T01:14:24.254Z,15.40
2022-10-25T01:16:58.789Z,15.20
2022-10-25T01:19:31.531Z,14.97
2022-10-25T01:22:06.045Z,15.03
2022-10-25T01:24:51.322Z,13.37
2022-10-25T01:27:36.687Z,14.57
2022-10-25T01:30:05.960Z,13.97
2022-10-25T01:32:35.845Z,15.23
2022-10-25T01:35:08.517Z,12.77
2022-10-25T01:37:41.146Z,13.33
2022-10-25T01:40:10.993Z,12.50
2022-10-25T01:42:56.230Z,14.07
2022-10-25T01:45:31.867Z,8.23
2022-10-25T01:48:13.711Z,14.70
2022-10-25T01:50:41.576Z,12.63
2022-10-25T01:53:08.848Z,9.07
2022-10-25T01:55:38.987Z,6.77
2022-10-25T01:58:24.665Z,8.80
2022-10-25T02:01:01.329Z,7.20
2022-10-25T02:03:30.659Z,9.70
2022-10-25T02:05:57.412Z,10.50
2022-10-25T02:08:24.327Z,8.90
2022-10-25T02:10:53.871Z,12.43
2022-10-25T02:13:26.802Z,8.13
2022-10-25T02:16:01.113Z,13.23
2022-10-25T02:20:58.897Z,9.70
2022-10-25T02:23:26.602Z,10.97
2022-10-25T02:25:54.389Z,10.40
2022-10-25T02:28:24.110Z,11.83
2022-10-25T02:30:52.073Z,12.70
2022-10-25T02:33:19.314Z,13.87
2022-10-25T02:36:04.471Z,13.67
2022-10-25T02:38:31.381Z,11.57
2022-10-25T02:40:58.990Z,11.80
2022-10-25T02:43:25.834Z,12.43
2022-10-25T02:45:52.599Z,13.17
2022-10-25T02:48:20.219Z,11.73
2022-10-25T02:50:46.938Z,9.50
2022-10-25T02:53:13.760Z,7.70
2022-10-25T02:55:40.556Z,7.87
2022-10-25T02:58:07.379Z,8.50
2022-10-25T03:00:34.188Z,8.07
2022-10-25T03:03:01.088Z,9.87
2022-10-25T03:05:27.867Z,11.60
2022-10-25T03:07:54.637Z,10.07
2022-10-25T03:10:21.535Z,10.77
2022-10-25T03:12:48.591Z,11.73
2022-10-25T03:15:15.826Z,10.33
2022-10-25T03:17:42.555Z,10.03
2022-10-25T03:20:09.622Z,8.47
2022-10-25T03:22:36.353Z,10.30
2022-10-25T03:25:03.340Z,11.40
2022-10-25T03:27:30.110Z,12.23
2022-10-25T03:29:56.936Z,19.63
2022-10-25T03:32:23.691Z,16.80
2022-10-25T03:34:50.512Z,11.80
2022-10-25T03:37:17.897Z,15.77
2022-10-25T03:39:44.791Z,12.63
2022-10-25T03:42:11.562Z,10.40
2022-10-25T03:44:38.428Z,10.33
2022-10-25T03:47:05.270Z,7.70
2022-10-25T03:49:32.049Z,10.23
2022-10-25T03:52:01.339Z,6.20
2022-10-25T03:54:31.051Z,7.53
2022-10-25T03:56:57.832Z,7.30
2022-10-25T03:59:24.691Z,6.97
2022-10-25T04:01:51.504Z,6.70
2022-10-25T04:04:18.373Z,8.43
2022-10-25T04:06:45.124Z,7.17
2022-10-25T04:09:12.268Z,7.00
2022-10-25T04:11:39.096Z,7.80
2022-10-25T04:14:05.999Z,8.03
2022-10-25T04:16:32.716Z,7.17
2022-10-25T04:18:59.780Z,8.27
2022-10-25T04:21:26.819Z,8.97
2022-10-25T04:23:54.007Z,9.63
2022-10-25T04:26:20.776Z,7.67
2022-10-25T04:28:51.945Z,8.73
2022-10-25T04:31:18.833Z,8.60
2022-10-25T04:33:49.006Z,7.30
2022-10-25T04:36:16.061Z,7.33
2022-10-25T04:38:42.889Z,7.93
2022-10-25T04:41:10.468Z,8.47
2022-10-25T04:43:37.514Z,6.17
2022-10-25T04:46:04.340Z,9.33
2022-10-25T04:48:31.067Z,12.27
2022-10-25T04:51:01.002Z,10.57
2022-10-25T04:53:27.928Z,7.07
2022-10-25T04:55:58.715Z,8.03
2022-10-25T04:58:28.918Z,9.53
2022-10-25T05:01:05.904Z,6.77
2022-10-25T05:03:33.256Z,10.27
2022-10-25T05:06:16.990Z,10.97
2022-10-25T05:08:44.793Z,8.10
2022-10-25T05:11:12.346Z,9.27
2022-10-25T05:13:40.078Z,7.83
2022-10-25T05:16:07.510Z,6.77
2022-10-25T05:18:34.849Z,6.63
2022-10-25T05:21:04.413Z,7.00
2022-10-25T05:23:32.188Z,7.10
2022-10-25T05:26:05.013Z,7.53
2022-10-25T05:28:32.471Z,8.43
2022-10-25T05:31:02.518Z,7.17
2022-10-25T05:33:29.604Z,8.00
2022-10-25T05:35:56.410Z,9.57
2022-10-25T05:38:23.181Z,8.67
2022-10-25T05:40:53.922Z,8.07
2022-10-25T05:43:20.852Z,7.57
2022-10-25T05:45:47.716Z,7.97
2022-10-25T05:48:14.500Z,9.93
2022-10-25T05:53:08.986Z,8.03
2022-10-25T05:55:36.771Z,8.30
2022-10-25T05:58:04.292Z,8.27
2022-10-25T06:00:31.179Z,8.53
2022-10-25T06:03:00.279Z,8.30
2022-10-25T06:05:27.066Z,9.03
2022-10-25T06:07:53.927Z,9.77
2022-10-25T06:10:20.728Z,9.33
2022-10-25T06:12:47.670Z,9.30
2022-10-25T06:15:14.772Z,8.23
2022-10-25T06:17:41.602Z,8.50
2022-10-25T06:20:08.698Z,9.40
2022-10-25T06:22:35.520Z,10.43
2022-10-25T06:25:02.321Z,9.70
2022-10-25T06:27:29.204Z,9.03
2022-10-25T06:29:55.976Z,8.27
2022-10-25T06:32:22.838Z,7.93
2022-10-25T06:34:49.637Z,8.20
2022-10-25T06:37:16.383Z,8.17
2022-10-25T06:39:43.144Z,7.70
2022-10-25T06:42:09.937Z,8.73
2022-10-25T06:44:36.781Z,7.63
2022-10-25T06:47:18.799Z,8.87
2022-10-25T06:49:45.930Z,8.87
2022-10-25T06:52:12.701Z,8.57
2022-10-25T06:54:39.542Z,7.83
2022-10-25T06:57:06.431Z,8.80
2022-10-25T06:59:33.172Z,8.80
2022-10-25T07:02:00.446Z,8.73
2022-10-25T07:04:27.345Z,7.60
2022-10-25T07:06:55.322Z,8.03
2022-10-25T07:09:22.298Z,8.43
2022-10-25T07:11:49.109Z,8.57
2022-10-25T07:14:16.033Z,8.77
2022-10-25T07:16:42.816Z,8.30
2022-10-25T07:19:10.751Z,8.87
2022-10-25T07:21:37.559Z,8.60
2022-10-25T07:24:04.762Z,8.80
2022-10-25T07:26:32.542Z,9.63
2022-10-25T07:29:00.099Z,8.40
2022-10-25T07:31:28.335Z,8.60
2022-10-25T07:33:57.205Z,9.10
2022-10-25T07:36:24.552Z,9.30
2022-10-25T07:38:51.320Z,9.90
2022-10-25T07:41:18.107Z,8.43
2022-10-25T07:43:45.027Z,8.47
2022-10-25T07:46:11.793Z,8.90
2022-10-25T07:48:39.167Z,7.80
2022-10-25T07:51:07.248Z,9.40
2022-10-25T07:53:34.187Z,9.17
2022-10-25T07:56:00.992Z,7.80
2022-10-25T07:58:27.874Z,8.20
2022-10-25T08:01:00.158Z,7.77
2022-10-25T08:03:26.964Z,7.87
2022-10-25T08:05:53.781Z,7.33
2022-10-25T08:08:23.357Z,7.30
2022-10-25T08:10:50.430Z,7.80
2022-10-25T08:13:17.327Z,7.57
2022-10-25T08:15:53.960Z,7.10
2022-10-25T08:18:21.020Z,6.50
2022-10-25T08:21:04.005Z,7.10
2022-10-25T08:23:32.152Z,7.10
2022-10-25T08:25:59.395Z,7.20
2022-10-25T08:28:26.346Z,6.97
2022-10-25T08:30:56.065Z,7.93
2022-10-25T08:33:23.450Z,7.93
2022-10-25T08:35:50.314Z,7.30
2022-10-25T08:38:17.264Z,7.10
2022-10-25T08:40:51.702Z,7.40
2022-10-25T08:43:18.493Z,7.37
2022-10-25T08:45:52.238Z,7.87
2022-10-25T08:48:22.423Z,7.30
2022-10-25T08:50:51.927Z,6.47
2022-10-25T08:53:22.289Z,6.90
2022-10-25T08:56:05.114Z,6.70
2022-10-25T08:58:38.470Z,7.10
2022-10-25T09:01:11.346Z,6.20
2022-10-25T09:06:15.238Z,6.37
2022-10-25T09:08:45.199Z,6.13
2022-10-25T09:11:12.197Z,5.90
2022-10-25T09:13:41.782Z,6.17
2022-10-25T09:16:09.501Z,12.90
2022-10-25T09:18:40.968Z,6.83
2022-10-25T09:21:14.902Z,6.80
2022-10-25T09:23:48.481Z,5.77
2022-10-25T09:26:35.504Z,6.17
2022-10-25T09:29:25.496Z,5.03
2022-10-25T09:31:54.507Z,5.30
2022-10-25T09:34:22.815Z,5.80
2022-10-25T09:36:52.502Z,5.10
2022-10-25T09:39:19.908Z,5.43
2022-10-25T09:41:48.439Z,5.30
2022-10-25T09:44:34.042Z,5.40
2022-10-25T09:47:04.574Z,6.07
2022-10-25T09:49:37.777Z,5.33
2022-10-25T09:52:13.403Z,4.80
2022-10-25T09:54:42.543Z,4.30
2022-10-25T09:57:09.350Z,4.33
2022-10-25T09:59:36.178Z,4.43
2022-10-25T10:02:03.185Z,4.17
2022-10-25T10:04:30.012Z,4.17
2022-10-25T10:07:03.694Z,4.53
2022-10-25T10:09:31.452Z,3.97
2022-10-25T10:12:00.277Z,4.73
2022-10-25T10:14:29.937Z,4.87
2022-10-25T10:16:57.521Z,3.80
2022-10-25T10:19:25.630Z,5.50
2022-10-25T10:22:09.496Z,5.57
2022-10-25T10:24:37.246Z,5.70
2022-10-25T10:27:08.849Z,4.57
2022-10-25T10:29:37.236Z,5.10
2022-10-25T10:32:22.135Z,4.90
2022-10-25T10:34:53.437Z,5.33
2022-10-25T10:37:21.566Z,5.57
2022-10-25T10:39:48.327Z,5.80
2022-10-25T10:42:19.225Z,6.00
2022-10-25T10:45:09.809Z,5.13
2022-10-25T10:47:36.575Z,4.30
2022-10-25T10:50:11.116Z,4.47
2022-10-25T10:52:43.795Z,4.00
2022-10-25T10:55:18.002Z,4.80
2022-10-25T10:57:45.203Z,4.07
2022-10-25T11:00:22.312Z,4.73
2022-10-25T11:02:50.797Z,3.60
2022-10-25T11:05:19.399Z,3.70
2022-10-25T11:07:52.519Z,4.20
2022-10-25T11:10:20.524Z,3.90
2022-10-25T11:13:04.168Z,4.00
2022-10-25T11:15:34.467Z,3.87
2022-10-25T11:18:05.176Z,3.67
2022-10-25T11:20:43.743Z,3.60
2022-10-25T11:23:13.659Z,3.57
2022-10-25T11:25:55.756Z,3.47
2022-10-25T11:28:44.432Z,3.23
2022-10-25T11:31:11.321Z,3.20
2022-10-25T11:33:56.550Z,3.60
2022-10-25T11:36:26.442Z,3.83
2022-10-25T11:38:53.214Z,3.93
2022-10-25T11:41:38.106Z,3.50
2022-10-25T11:44:07.917Z,3.97
2022-10-25T11:46:41.930Z,3.47
2022-10-25T11:49:27.429Z,3.33
2022-10-25T11:54:49.537Z,3.33
2022-10-25T11:57:28.273Z,3.87
2022-10-25T12:00:01.370Z,3.93
2022-10-25T12:02:47.007Z,4.77
2022-10-25T12:05:14.135Z,5.27
2022-10-25T12:07:44.595Z,4.60
2022-10-25T12:10:17.474Z,4.37
2022-10-25T12:12:50.831Z,4.57
2022-10-25T12:15:27.512Z,4.27
2022-10-25T12:17:54.335Z,5.10
2022-10-25T12:20:26.256Z,4.60
2022-10-25T12:22:55.873Z,4.00
2022-10-25T12:25:25.334Z,3.83
2022-10-25T12:28:06.772Z,4.07
2022-10-25T12:30:34.352Z,4.17
2022-10-25T12:33:24.079Z,3.90
2022-10-25T12:35:53.381Z,3.70
2022-10-25T12:38:26.000Z,3.87
2022-10-25T12:40:54.681Z,3.63
2022-10-25T12:43:33.192Z,3.50
2022-10-25T12:46:16.548Z,3.27
2022-10-25T12:49:03.373Z,3.00
2022-10-25T12:51:30.212Z,3.40
2022-10-25T12:54:09.615Z,3.27
2022-10-25T12:56:36.514Z,3.43
2022-10-25T12:59:03.220Z,3.50
2022-10-25T13:01:30.217Z,3.37
2022-10-25T13:04:06.137Z,3.70
2022-10-25T13:06:32.875Z,3.53
2022-10-25T13:09:04.873Z,3.30
2022-10-25T13:11:52.848Z,3.43
2022-10-25T13:14:21.402Z,3.63
2022-10-25T13:16:48.246Z,3.50
2022-10-25T13:19:42.397Z,4.07
2022-10-25T13:22:12.228Z,3.80
2022-10-25T13:24:41.776Z,3.40
2022-10-25T13:27:28.452Z,3.80
2022-10-25T13:30:07.536Z,4.10
2022-10-25T13:32:35.478Z,3.03
2022-10-25T13:35:03.989Z,3.70
2022-10-25T13:37:31.148Z,4.40
2022-10-25T13:39:59.046Z,7.27
2022-10-25T13:42:33.442Z,3.70
2022-10-25T13:45:03.112Z,4.40
2022-10-25T13:47:36.249Z,4.17
2022-10-25T13:50:18.807Z,4.00
2022-10-25T13:52:56.815Z,4.17
2022-10-25T13:55:27.408Z,3.60
2022-10-25T13:57:55.363Z,3.57
2022-10-25T14:00:22.107Z,3.90
2022-10-25T14:03:07.805Z,4.03
2022-10-25T14:05:53.186Z,4.07
2022-10-25T14:08:22.346Z,3.90
2022-10-25T14:10:49.480Z,4.03
2022-10-25T14:13:27.748Z,4.87
2022-10-25T14:16:00.546Z,4.30
2022-10-25T14:18:28.797Z,4.47
2022-10-25T14:20:58.308Z,4.40
2022-10-25T14:23:27.534Z,4.90
2022-10-25T14:25:56.262Z,4.03
2022-10-25T14:28:27.660Z,4.90
2022-10-25T14:31:01.742Z,3.83
2022-10-25T14:33:33.836Z,4.20
2022-10-25T14:36:05.292Z,4.47
2022-10-25T14:38:33.461Z,3.87
2022-10-25T14:41:02.801Z,4.40
2022-10-25T14:43:36.851Z,5.20
2022-10-25T14:46:06.751Z,4.93
2022-10-25T14:48:33.904Z,5.07
2022-10-25T14:51:04.162Z,5.63
2022-10-25T14:53:31.146Z,6.53
2022-10-25T14:56:02.134Z,5.20
2022-10-25T14:58:34.036Z,5.73
2022-10-25T15:01:02.334Z,5.43
2022-10-25T15:03:30.050Z,5.50
2022-10-25T15:05:59.885Z,5.27
2022-10-25T15:08:28.460Z,5.03
2022-10-25T15:10:56.946Z,4.07
2022-10-25T15:13:27.637Z,4.50
2022-10-25T15:15:54.738Z,4.30
2022-10-25T15:18:27.524Z,5.33
2022-10-25T15:21:14.363Z,6.43
2022-10-25T15:23:42.571Z,5.73
2022-10-25T15:26:21.655Z,6.37
2022-10-25T15:28:49.683Z,6.10
2022-10-25T15:31:23.668Z,5.60
2022-10-25T15:33:57.441Z,5.90
2022-10-25T15:36:25.505Z,6.33
2022-10-25T15:39:08.262Z,10.23
2022-10-25T15:41:38.555Z,7.40
2022-10-25T15:44:05.322Z,9.50
2022-10-25T15:46:33.551Z,7.67
2022-10-25T15:49:01.468Z,6.43
2022-10-25T15:51:30.992Z,6.73
2022-10-25T15:53:58.184Z,7.00
2022-10-25T15:56:25.221Z,7.37
2022-10-25T15:58:52.030Z,7.63
2022-10-25T16:01:19.102Z,8.30
2022-10-25T16:03:46.076Z,7.93
2022-10-25T16:06:14.296Z,7.30
2022-10-25T16:08:41.811Z,7.53
2022-10-25T16:11:12.846Z,11.40
2022-10-25T16:13:39.754Z,14.60
2022-10-25T16:16:21.867Z,16.73
2022-10-25T16:18:54.675Z,16.13
2022-10-25T16:21:22.012Z,10.10
2022-10-25T16:23:49.360Z,18.77
2022-10-25T16:26:23.625Z,22.80
2022-10-25T16:28:50.604Z,24.03
2022-10-25T16:31:17.608Z,24.07
2022-10-25T16:33:44.441Z,11.60
2022-10-25T16:36:11.564Z,10.00
2022-10-25T16:38:38.337Z,10.23
2022-10-25T16:41:05.178Z,11.07
2022-10-25T16:43:32.022Z,9.17
2022-10-25T16:45:58.883Z,15.23
2022-10-25T16:48:25.876Z,20.87
2022-10-25T16:50:52.739Z,22.83
2022-10-25T16:53:19.817Z,15.10
2022-10-25T16:55:46.737Z,12.63
2022-10-25T16:58:13.512Z,36.13
2022-10-25T17:00:40.383Z,16.93
2022-10-25T17:03:07.285Z,13.17
2022-10-25T17:05:34.262Z,11.83
2022-10-25T17:08:01.269Z,14.00
2022-10-25T17:10:29.190Z,17.23
2022-10-25T17:13:03.814Z,12.63
2022-10-25T17:15:31.370Z,13.10
2022-10-25T17:17:58.512Z,14.67
2022-10-25T17:20:25.377Z,10.83
2022-10-25T17:22:52.337Z,19.07
2022-10-25T17:25:19.751Z,45.60
2022-10-25T17:27:50.773Z,60.60
2022-10-25T17:30:18.848Z,57.40
2022-10-25T17:32:46.551Z,31.10
2022-10-25T17:35:14.083Z,50.40
2022-10-25T17:37:43.884Z,28.40
2022-10-25T17:40:11.559Z,22.27
2022-10-25T17:42:38.441Z,28.53
2022-10-25T17:45:06.220Z,14.70
2022-10-25T17:47:33.122Z,14.17
2022-10-25T17:50:01.841Z,88.97
2022-10-25T17:52:28.795Z,74.60
2022-10-25T17:54:55.561Z,68.57
2022-10-25T17:57:22.442Z,85.27
2022-10-25T17:59:49.275Z,75.63
2022-10-25T18:02:16.256Z,51.27
2022-10-25T18:05:01.048Z,56.00
2022-10-25T18:07:31.212Z,86.40
2022-10-25T18:10:01.135Z,148.27
2022-10-25T18:12:27.958Z,119.83
2022-10-25T18:14:55.584Z,163.80
2022-10-25T18:17:22.892Z,142.37
2022-10-25T18:19:49.704Z,279.60
2022-10-25T18:22:18.263Z,132.10
2022-10-25T18:24:45.170Z,275.80
2022-10-25T18:27:15.037Z,319.60
2022-10-25T18:29:43.549Z,90.63
2022-10-25T18:32:10.373Z,109.77
2022-10-25T18:34:37.236Z,82.53
2022-10-25T18:37:03.958Z,43.47
2022-10-25T18:39:30.877Z,57.23
2022-10-25T18:41:58.776Z,41.60
2022-10-25T18:44:25.891Z,57.57
2022-10-25T18:46:54.190Z,76.10
2022-10-25T18:49:20.977Z,95.13
2022-10-25T18:51:47.736Z,161.63
2022-10-25T18:54:14.618Z,96.00
2022-10-25T18:56:41.404Z,61.47
2022-10-25T18:59:09.485Z,106.10
2022-10-25T19:01:36.529Z,80.90
2022-10-25T19:04:04.189Z,91.87
2022-10-25T19:06:31.740Z,18.50
2022-10-25T19:08:58.815Z,16.23
2022-10-25T19:11:25.612Z,279.70
2022-10-25T19:13:53.589Z,167.40
2022-10-25T19:16:20.718Z,117.83
2022-10-25T19:18:47.638Z,24.63
2022-10-25T19:21:17.003Z,26.20
2022-10-25T19:23:46.363Z,25.57
2022-10-25T19:26:15.561Z,25.57
2022-10-25T19:28:42.739Z,27.27
2022-10-25T19:31:13.780Z,21.97
2022-10-25T19:33:44.516Z,21.50
2022-10-25T19:36:11.721Z,21.23
2022-10-25T19:38:38.750Z,23.47
2022-10-25T19:41:06.855Z,29.73
2022-10-25T19:43:33.859Z,22.90
2022-10-25T19:46:01.914Z,26.47
2022-10-25T19:48:31.556Z,25.40
2022-10-25T19:51:04.268Z,26.40
2022-10-25T19:53:31.287Z,24.33
2022-10-25T19:56:18.377Z,18.00
2022-10-25T19:58:45.243Z,15.67
2022-10-25T20:01:16.483Z,15.90
2022-10-25T20:03:44.909Z,15.57
2022-10-25T20:06:18.736Z,17.50
2022-10-25T20:08:49.173Z,26.73
2022-10-25T20:11:16.951Z,19.80
2022-10-25T20:13:44.135Z,23.10
2022-10-25T20:16:11.039Z,22.23
2022-10-25T20:18:39.562Z,19.40
2022-10-25T20:21:08.466Z,18.10
2022-10-25T20:23:36.663Z,12.43
2022-10-25T20:26:17.838Z,12.43
2022-10-25T20:28:45.167Z,12.83
2022-10-25T20:31:12.717Z,12.00
2022-10-25T20:33:40.276Z,10.07
2022-10-25T20:36:08.182Z,9.33
2022-10-25T20:38:36.028Z,11.97
2022-10-25T20:41:04.459Z,11.67
2022-10-25T20:43:31.511Z,10.60
2022-10-25T20:45:58.964Z,9.67
2022-10-25T20:48:26.515Z,10.77
2022-10-25T20:50:54.056Z,8.50
2022-10-25T20:53:22.091Z,9.37
2022-10-25T20:55:49.951Z,11.53
2022-10-25T20:58:18.199Z,9.13
2022-10-25T21:00:46.100Z,9.53
2022-10-25T21:03:13.622Z,9.77
2022-10-25T21:05:43.608Z,12.20
2022-10-25T21:08:11.131Z,10.10
2022-10-25T21:10:38.432Z,8.57
2022-10-25T21:13:05.551Z,9.80
2022-10-25T21:15:32.764Z,9.27
2022-10-25T21:18:00.031Z,9.93
2022-10-25T21:20:27.122Z,8.87
2022-10-25T21:22:53.892Z,9.70
2022-10-25T21:25:20.655Z,8.90
2022-10-25T21:27:47.844Z,8.90
2022-10-25T21:30:14.828Z,9.43
2022-10-25T21:32:41.663Z,10.13
2022-10-25T21:35:08.551Z,10.57
2022-10-25T21:37:35.961Z,9.10
2022-10-25T21:40:02.712Z,9.30
2022-10-25T21:42:32.801Z,9.53
2022-10-25T21:44:59.791Z,9.57
2022-10-25T21:47:26.746Z,9.50
2022-10-25T21:49:53.612Z,10.00
2022-10-25T21:52:20.397Z,9.57
2022-10-25T21:54:47.212Z,9.97
2022-10-25T21:57:14.004Z,11.17
2022-10-25T21:59:40.923Z,11.17
2022-10-25T22:02:08.133Z,10.60
2022-10-25T22:04:34.998Z,11.00
2022-10-25T22:07:01.894Z,13.80
2022-10-25T22:09:28.632Z,10.50
2022-10-25T22:11:55.547Z,15.83
2022-10-25T22:14:22.363Z,22.27
2022-10-25T22:16:49.151Z,16.37
2022-10-25T22:19:17.075Z,14.20
2022-10-25T22:21:44.654Z,13.13
2022-10-25T22:24:12.387Z,12.03
2022-10-25T22:26:40.498Z,38.67
2022-10-25T22:29:09.701Z,11.77
2022-10-25T22:31:36.835Z,20.77
2022-10-25T22:34:04.743Z,21.87
2022-10-25T22:36:32.755Z,13.50
2022-10-25T22:39:00.389Z,10.93
2022-10-25T22:41:28.485Z,9.30
2022-10-25T22:43:55.593Z,9.77
2022-10-25T22:46:26.378Z,9.70
2022-10-25T22:48:54.229Z,9.50
2022-10-25T22:51:22.141Z,8.73
2022-10-25T22:53:48.966Z,9.00
2022-10-25T22:56:17.535Z,9.10
2022-10-25T22:58:48.538Z,8.03
2022-10-25T23:01:16.418Z,7.20
2022-10-25T23:03:44.225Z,8.83
2022-10-25T23:06:12.745Z,7.23
2022-10-25T23:08:40.075Z,5.67
2022-10-25T23:11:12.761Z,8.87
2022-10-25T23:13:39.822Z,8.37
2022-10-25T23:16:07.243Z,8.97
2022-10-25T23:18:34.268Z,9.40
2022-10-25T23:21:02.403Z,7.00
2022-10-25T23:23:32.679Z,6.60
2022-10-25T23:26:00.386Z,7.80
2022-10-25T23:28:30.727Z,8.43
2022-10-25T23:31:03.221Z,8.33
2022-10-25T23:33:30.252Z,7.43
2022-10-25T23:36:01.096Z,7.33
2022-10-25T23:38:28.780Z,8.80
2022-10-25T23:40:55.848Z,9.33
2022-10-25T23:43:22.665Z,7.87
2022-10-25T23:45:49.618Z,6.90
2022-10-25T23:48:16.624Z,7.47
2022-10-25T23:50:44.000Z,7.23
2022-10-25T23:53:11.304Z,8.47
2022-10-25T23:55:38.903Z,8.33
2022-10-25T23:58:05.978Z,9.23
